createdAt,value
2022-09-20T00:02:28.079Z,99.90
2022-09-20T00:07:27.219Z,99.90
2022-09-20T00:12:26.547Z,99.90
2022-09-20T00:17:25.088Z,99.90
2022-09-20T00:22:24.251Z,99.90
2022-09-20T00:27:23.175Z,99.90
2022-09-20T00:32:22.083Z,99.90
2022-09-20T00:37:21.303Z,99.90
2022-09-20T00:42:20.103Z,99.90
2022-09-20T00:47:19.109Z,99.90
2022-09-20T00:52:18.339Z,99.90
2022-09-20T00:57:17.138Z,99.90
2022-09-20T01:02:16.082Z,99.90
2022-09-20T01:07:15.138Z,99.90
2022-09-20T01:12:14.667Z,99.90
2022-09-20T01:17:13.183Z,99.90
2022-09-20T01:22:12.102Z,99.90
2022-09-20T01:27:11.227Z,99.90
2022-09-20T01:32:10.270Z,99.90
2022-09-20T01:37:09.219Z,99.90
2022-09-20T01:42:08.239Z,99.90
2022-09-20T01:47:07.027Z,99.90
2022-09-20T01:52:06.247Z,99.90
2022-09-20T01:57:05.263Z,99.90
2022-09-20T02:02:04.115Z,99.90
2022-09-20T02:07:03.358Z,99.90
2022-09-20T02:12:02.291Z,99.90
2022-09-20T02:17:01.196Z,99.90
2022-09-20T02:22:00.144Z,99.90
2022-09-20T02:26:59.144Z,99.90
2022-09-20T02:31:58.408Z,99.90
2022-09-20T02:36:57.360Z,99.90
2022-09-20T02:41:56.434Z,99.90
2022-09-20T02:46:55.184Z,99.90
2022-09-20T02:51:54.197Z,99.90
2022-09-20T02:56:53.273Z,99.90
2022-09-20T03:01:52.289Z,99.90
2022-09-20T03:06:51.232Z,99.90
2022-09-20T03:11:50.248Z,99.90
2022-09-20T03:16:52.282Z,99.90
2022-09-20T03:21:50.310Z,99.90
2022-09-20T03:26:49.334Z,99.90
2022-09-20T03:31:48.676Z,99.90
2022-09-20T03:36:47.342Z,99.90
2022-09-20T03:41:46.216Z,99.90
2022-09-20T03:46:45.648Z,99.90
2022-09-20T03:51:44.278Z,99.90
2022-09-20T03:56:43.712Z,99.90
2022-09-20T04:01:42.302Z,99.90
2022-09-20T04:06:41.420Z,99.90
2022-09-20T04:11:40.459Z,99.90
2022-09-20T04:16:39.302Z,99.90
2022-09-20T04:21:38.237Z,99.90
2022-09-20T04:26:37.265Z,99.90
2022-09-20T04:31:36.401Z,99.90
2022-09-20T04:36:35.369Z,99.90
2022-09-20T04:41:34.576Z,99.90
2022-09-20T04:46:35.221Z,99.90
2022-09-20T04:51:34.453Z,99.90
2022-09-20T04:56:33.385Z,99.90
2022-09-20T05:01:32.780Z,99.90
2022-09-20T05:06:33.116Z,99.90
2022-09-20T05:11:32.266Z,99.90
2022-09-20T05:16:31.637Z,99.90
2022-09-20T05:21:30.280Z,99.90
2022-09-20T05:26:29.277Z,99.90
2022-09-20T05:31:28.405Z,99.90
2022-09-20T05:36:30.101Z,99.90
2022-09-20T05:41:30.240Z,99.90
2022-09-20T05:46:29.488Z,99.90
2022-09-20T05:51:28.473Z,99.90
2022-09-20T05:56:27.357Z,99.90
2022-09-20T06:01:26.833Z,99.90
2022-09-20T06:06:29.168Z,99.90
2022-09-20T06:11:27.347Z,99.90
2022-09-20T06:16:26.409Z,99.90
2022-09-20T06:21:25.365Z,99.90
2022-09-20T06:26:24.393Z,99.90
2022-09-20T06:31:23.376Z,99.90
2022-09-20T06:36:40.413Z,99.90
2022-09-20T06:41:39.312Z,99.90
2022-09-20T06:46:41.621Z,99.90
2022-09-20T06:51:40.740Z,99.90
2022-09-20T06:56:39.350Z,99.90
2022-09-20T07:01:38.444Z,99.90
2022-09-20T07:06:37.373Z,99.90
2022-09-20T07:11:36.382Z,99.90
2022-09-20T07:16:36.769Z,99.90
2022-09-20T07:21:35.485Z,99.90
2022-09-20T07:26:34.730Z,99.90
2022-09-20T07:31:33.452Z,99.90
2022-09-20T07:36:32.306Z,99.90
2022-09-20T07:41:32.143Z,99.90
2022-09-20T07:46:33.548Z,99.90
2022-09-20T07:51:32.451Z,99.90
2022-09-20T07:56:31.430Z,99.90
2022-09-20T08:01:30.992Z,99.90
2022-09-20T08:06:33.568Z,99.40
2022-09-20T08:11:32.505Z,99.90
2022-09-20T08:16:31.411Z,99.90
2022-09-20T08:21:31.070Z,99.90
2022-09-20T08:26:31.221Z,99.90
2022-09-20T08:31:32.946Z,99.60
2022-09-20T08:36:36.474Z,97.10
2022-09-20T08:41:33.664Z,96.30
2022-09-20T08:46:34.022Z,96.30
2022-09-20T08:51:33.482Z,96.70
2022-09-20T08:56:33.247Z,95.30
2022-09-20T09:01:33.486Z,95.00
2022-09-20T09:06:32.982Z,93.00
2022-09-20T09:11:33.035Z,93.50
2022-09-20T09:16:35.410Z,92.10
2022-09-20T09:21:33.327Z,92.30
2022-09-20T09:26:33.522Z,93.80
2022-09-20T09:31:32.951Z,94.60
2022-09-20T09:36:33.524Z,94.70
2022-09-20T09:41:34.712Z,95.20
2022-09-20T09:46:34.121Z,95.00
2022-09-20T09:51:33.516Z,95.70
2022-09-20T09:56:32.400Z,95.80
2022-09-20T10:01:33.586Z,95.90
2022-09-20T10:06:32.468Z,96.60
2022-09-20T10:11:31.775Z,97.10
2022-09-20T10:16:31.668Z,97.30
2022-09-20T10:21:30.522Z,97.40
2022-09-20T10:26:29.645Z,97.10
2022-09-20T10:31:28.485Z,96.60
2022-09-20T10:36:27.615Z,96.10
2022-09-20T10:41:44.471Z,95.90
2022-09-20T10:46:43.740Z,90.20
2022-09-20T10:51:44.124Z,84.40
2022-09-20T10:56:44.535Z,85.50
2022-09-20T11:01:43.858Z,83.60
2022-09-20T11:06:43.228Z,84.10
2022-09-20T11:11:42.543Z,82.60
2022-09-20T11:16:42.989Z,79.70
2022-09-20T11:21:42.435Z,77.50
2022-09-20T11:26:41.430Z,78.80
2022-09-20T11:31:41.011Z,74.70
2022-09-20T11:36:40.906Z,77.10
2022-09-20T11:41:39.395Z,73.50
2022-09-20T11:46:38.599Z,72.40
2022-09-20T11:51:37.516Z,74.60
2022-09-20T11:56:36.515Z,74.70
2022-09-20T12:01:35.561Z,80.70
2022-09-20T12:06:34.532Z,76.70
2022-09-20T12:11:33.720Z,81.90
2022-09-20T12:16:33.040Z,83.20
2022-09-20T12:21:31.571Z,71.00
2022-09-20T12:26:30.591Z,69.80
2022-09-20T12:31:31.758Z,77.50
2022-09-20T12:36:30.567Z,82.00
2022-09-20T12:41:29.575Z,84.20
2022-09-20T12:46:28.805Z,86.20
2022-09-20T12:51:45.555Z,88.10
2022-09-20T12:56:46.240Z,84.40
2022-09-20T13:01:45.926Z,86.50
2022-09-20T13:06:45.680Z,84.70
2022-09-20T13:11:45.409Z,85.70
2022-09-20T13:16:44.983Z,86.90
2022-09-20T13:21:44.413Z,86.90
2022-09-20T13:26:44.004Z,86.60
2022-09-20T13:31:42.831Z,79.40
2022-09-20T13:36:41.536Z,83.50
2022-09-20T13:41:40.740Z,80.00
2022-09-20T13:46:39.552Z,82.10
2022-09-20T13:51:38.469Z,79.10
2022-09-20T13:56:37.930Z,80.30
2022-09-20T14:01:36.632Z,79.80
2022-09-20T14:06:35.601Z,79.40
2022-09-20T14:11:36.597Z,79.10
2022-09-20T14:16:35.636Z,74.70
2022-09-20T14:21:34.608Z,73.70
2022-09-20T14:26:34.406Z,74.40
2022-09-20T14:31:34.282Z,73.30
2022-09-20T14:36:33.657Z,73.20
2022-09-20T14:41:36.049Z,74.60
2022-09-20T14:46:35.469Z,72.70
2022-09-20T14:51:34.485Z,73.40
2022-09-20T14:56:33.640Z,76.40
2022-09-20T15:01:32.711Z,79.90
2022-09-20T15:06:31.797Z,79.80
2022-09-20T15:11:30.744Z,81.70
2022-09-20T15:16:30.147Z,84.20
2022-09-20T15:21:30.082Z,83.40
2022-09-20T15:26:30.677Z,76.60
2022-09-20T15:31:29.739Z,79.60
2022-09-20T15:36:30.551Z,76.40
2022-09-20T15:41:31.558Z,77.10
2022-09-20T15:46:31.637Z,78.80
2022-09-20T15:51:30.676Z,80.20
2022-09-20T15:56:32.796Z,77.60
2022-09-20T16:01:32.495Z,82.40
2022-09-20T16:06:31.744Z,81.20
2022-09-20T16:11:30.877Z,82.50
2022-09-20T16:16:29.792Z,83.20
2022-09-20T16:21:28.574Z,82.30
2022-09-20T16:26:27.788Z,83.20
2022-09-20T16:31:26.824Z,84.50
2022-09-20T16:36:27.655Z,83.60
2022-09-20T16:41:28.244Z,83.70
2022-09-20T16:46:27.630Z,86.20
2022-09-20T16:51:26.809Z,88.30
2022-09-20T16:56:25.740Z,88.80
2022-09-20T17:01:24.958Z,90.00
2022-09-20T17:06:23.876Z,90.40
2022-09-20T17:11:23.583Z,90.70
2022-09-20T17:16:22.910Z,91.20
2022-09-20T17:21:21.720Z,91.60
2022-09-20T17:26:22.742Z,92.00
2022-09-20T17:31:23.127Z,92.50
2022-09-20T17:36:22.766Z,93.00
2022-09-20T17:41:21.753Z,93.40
2022-09-20T17:46:22.499Z,93.80
2022-09-20T17:51:21.831Z,94.20
2022-09-20T17:56:22.879Z,94.30
2022-09-20T18:01:21.750Z,94.70
2022-09-20T18:06:20.727Z,95.00
2022-09-20T18:11:19.721Z,95.30
2022-09-20T18:16:18.750Z,95.60
2022-09-20T18:21:17.843Z,95.90
2022-09-20T18:26:22.542Z,96.00
2022-09-20T18:31:22.454Z,96.30
2022-09-20T18:36:23.696Z,96.40
2022-09-20T18:41:25.068Z,96.60
2022-09-20T18:46:24.407Z,96.70
2022-09-20T18:51:24.227Z,97.00
2022-09-20T18:56:22.795Z,97.10
2022-09-20T19:01:21.833Z,97.30
2022-09-20T19:06:20.935Z,97.60
2022-09-20T19:11:20.424Z,97.70
2022-09-20T19:16:20.341Z,97.80
2022-09-20T19:21:19.958Z,98.00
2022-09-20T19:26:19.258Z,98.10
2022-09-20T19:31:18.963Z,98.20
2022-09-20T19:36:17.869Z,98.30
2022-09-20T19:41:17.639Z,98.30
2022-09-20T19:46:16.835Z,98.60
2022-09-20T19:51:16.571Z,98.80
2022-09-20T19:56:15.951Z,98.80
2022-09-20T20:01:14.967Z,98.90
2022-09-20T20:06:15.830Z,99.10
2022-09-20T20:11:14.848Z,99.00
2022-09-20T20:16:13.943Z,99.20
2022-09-20T20:21:13.152Z,99.30
2022-09-20T20:26:11.980Z,99.40
2022-09-20T20:31:11.860Z,99.60
2022-09-20T20:36:11.688Z,99.70
2022-09-20T20:41:10.940Z,99.60
2022-09-20T20:46:09.976Z,99.60
2022-09-20T20:51:09.449Z,99.60
2022-09-20T20:56:08.787Z,99.80
2022-09-20T21:01:07.803Z,99.70
2022-09-20T21:06:06.803Z,99.80
2022-09-20T21:11:05.924Z,99.90
2022-09-20T21:16:05.203Z,99.90
2022-09-20T21:21:03.836Z,99.80
2022-09-20T21:26:04.934Z,99.90
2022-09-20T21:31:05.258Z,99.80
2022-09-20T21:36:03.955Z,99.90
2022-09-20T21:41:03.131Z,99.90
2022-09-20T21:46:02.009Z,99.90
2022-09-20T21:51:00.996Z,99.90
2022-09-20T21:55:59.999Z,99.90
2022-09-20T22:00:58.816Z,99.90
2022-09-20T22:05:58.319Z,99.90
2022-09-20T22:10:56.947Z,99.90
2022-09-20T22:15:56.121Z,99.90
2022-09-20T22:20:54.951Z,99.90
2022-09-20T22:25:53.852Z,99.90
2022-09-20T22:30:52.919Z,99.90
2022-09-20T22:35:51.964Z,99.90
2022-09-20T22:40:51.112Z,99.90
2022-09-20T22:45:49.930Z,99.90
2022-09-20T22:50:48.831Z,99.90
2022-09-20T22:55:47.922Z,99.90
2022-09-20T23:00:46.942Z,99.90
2022-09-20T23:05:45.935Z,99.90
2022-09-20T23:10:44.947Z,99.90
2022-09-20T23:15:44.047Z,99.80
2022-09-20T23:20:43.067Z,99.80
2022-09-20T23:25:42.068Z,99.80
2022-09-20T23:30:40.973Z,99.90
2022-09-20T23:35:40.032Z,99.90
2022-09-20T23:40:39.136Z,99.90
2022-09-20T23:45:37.978Z,99.90
2022-09-20T23:50:37.558Z,99.90
2022-09-20T23:55:36.889Z,99.90
